Terminal Aerodrome Forecast
Issued by NWS

Current Version | Previous Version | Text Only | Print | Product List | Glossary Off
Versions: 1 2 3 4 5 6 7 8 9 10 11 12 13 14 15 16

000
FTUS41 KPBZ 201509 AAA
TAFHLG
TAF AMD
KHLG 201509Z 2015/2112 35005KT P6SM BKN020
     FM201800 31004KT P6SM BKN150
     FM210900 01002KT P6SM VCSH OVC035=

USA.gov is the U.S. government's official web portal to all federal, state and local government web resources and services.